Time;durP1;ratioP1;P1;durP2;ratioP2;P2;SDS_P1;SDS_P2;PMS_P1;PMS_P2;Temp;Humidity;BMP_temperature;BMP_pressure;BME280_temperature;BME280_humidity;BME280_pressure;Samples;Min_cycle;Max_cycle;Signal;HPM_P1;HPM_P2
2022/07/02 00:00:50;;;;;;;6.32;2.80;;;;;;;15.23;100.00;102101.25;5065174;28;20113;-75
2022/07/02 00:03:20;;;;;;;7.88;2.50;;;;;;;15.21;100.00;102100.69;5056042;28;20436;-74
2022/07/02 00:05:56;;;;;;;7.50;2.65;;;;;;;15.13;100.00;102100.47;5082085;28;20104;-74
2022/07/02 00:08:24;;;;;;;8.10;2.40;;;;;;;15.13;100.00;102094.94;5057916;28;20054;-75
2022/07/02 00:10:51;;;;;;;8.75;2.80;;;;;;;15.06;100.00;102081.44;5067840;28;20446;-75
2022/07/02 00:13:17;;;;;;;6.25;2.13;;;;;;;15.12;100.00;102072.03;5061845;28;20024;-74
2022/07/02 00:15:44;;;;;;;7.05;2.80;;;;;;;15.16;100.00;102075.03;5084280;28;21060;-75
2022/07/02 00:18:10;;;;;;;8.75;2.80;;;;;;;15.21;100.00;102069.50;5047101;28;20160;-74
2022/07/02 00:20:37;;;;;;;5.75;2.80;;;;;;;15.19;100.00;102063.44;5064582;28;20036;-75
2022/07/02 00:23:02;;;;;;;9.50;2.50;;;;;;;15.18;100.00;102056.25;5045343;28;20059;-75
2022/07/02 00:25:41;;;;;;;8.75;2.83;;;;;;;15.23;100.00;102057.06;5049989;28;20070;-75
2022/07/02 00:28:10;;;;;;;7.72;2.53;;;;;;;15.21;100.00;102053.72;5066406;28;20126;-75
2022/07/02 00:30:42;;;;;;;4.07;2.28;;;;;;;15.12;100.00;102054.59;5048192;28;20427;-74
2022/07/02 00:33:12;;;;;;;6.45;2.60;;;;;;;15.11;100.00;102059.31;5060881;28;20088;-74
2022/07/02 00:35:38;;;;;;;6.68;2.20;;;;;;;15.19;100.00;102053.19;5082963;28;20358;-74
2022/07/02 00:38:05;;;;;;;7.32;2.25;;;;;;;15.16;100.00;102059.28;5079584;28;20031;-74
2022/07/02 00:40:31;;;;;;;8.63;2.45;;;;;;;15.22;100.00;102062.88;5082500;28;20531;-74
2022/07/02 00:42:58;;;;;;;7.15;2.17;;;;;;;15.23;100.00;102065.34;5065707;28;20336;-74
2022/07/02 00:45:25;;;;;;;5.00;1.90;;;;;;;15.31;100.00;102068.63;5063655;28;20915;-74
2022/07/02 00:47:51;;;;;;;4.45;1.80;;;;;;;15.27;100.00;102067.53;5080297;28;20331;-74
2022/07/02 00:50:17;;;;;;;5.78;2.00;;;;;;;15.30;100.00;102072.47;5084123;28;20424;-74
2022/07/02 00:52:43;;;;;;;7.05;2.05;;;;;;;15.28;100.00;102078.28;5045135;28;20028;-74
2022/07/02 00:55:08;;;;;;;5.82;2.03;;;;;;;15.33;100.00;102081.03;5049567;28;20036;-74
2022/07/02 00:57:35;;;;;;;4.30;1.65;;;;;;;15.35;100.00;102084.34;5044796;28;20156;-74
2022/07/02 01:00:00;;;;;;;4.28;1.77;;;;;;;15.25;100.00;102096.28;5066552;28;20028;-74
2022/07/02 01:02:27;;;;;;;3.75;1.88;;;;;;;15.23;100.00;102092.13;5082527;28;20394;-74
2022/07/02 01:04:52;;;;;;;5.40;1.80;;;;;;;15.26;100.00;102097.09;5046539;28;20490;-74
2022/07/02 01:07:21;;;;;;;4.25;1.67;;;;;;;15.28;100.00;102094.84;5080670;28;20236;-74
2022/07/02 01:12:34;;;;;;;4.90;1.75;;;;;;;15.31;100.00;102097.06;5081753;28;20039;-74
2022/07/02 01:14:59;;;;;;;6.13;1.70;;;;;;;15.31;100.00;102094.28;5067443;28;20169;-74
2022/07/02 01:17:25;;;;;;;3.22;1.40;;;;;;;15.29;100.00;102096.53;5063581;28;20111;-75
2022/07/02 01:19:52;;;;;;;4.50;1.85;;;;;;;15.35;100.00;102092.63;5042579;28;20031;-74
2022/07/02 01:22:25;;;;;;;4.10;1.60;;;;;;;15.26;100.00;102099.84;5061929;28;20020;-74
2022/07/02 01:24:53;;;;;;;4.15;1.63;;;;;;;15.31;100.00;102097.06;5046343;28;20615;-75
2022/07/02 01:27:21;;;;;;;3.65;1.70;;;;;;;15.30;100.00;102098.19;5063704;28;20489;-74
2022/07/02 01:29:47;;;;;;;4.10;1.50;;;;;;;15.31;100.00;102094.28;5062726;28;20160;-74
2022/07/02 01:32:13;;;;;;;2.88;1.70;;;;;;;15.28;100.00;102097.63;5061872;28;20114;-74
2022/07/02 01:34:41;;;;;;;4.40;1.75;;;;;;;15.26;100.00;102099.84;5057381;28;20119;-74
2022/07/02 01:37:09;;;;;;;3.28;1.50;;;;;;;15.23;100.00;102097.66;5060538;28;20190;-74
2022/07/02 01:39:35;;;;;;;9.48;1.83;;;;;;;15.23;100.00;102100.41;5043664;28;20032;-74
2022/07/02 01:42:00;;;;;;;4.68;1.30;;;;;;;15.19;100.00;102104.88;5063638;28;20044;-74
2022/07/02 01:44:26;;;;;;;5.68;2.10;;;;;;;15.18;100.00;102108.72;5046249;28;20088;-75
2022/07/02 01:46:51;;;;;;;4.97;1.65;;;;;;;15.11;100.00;102108.22;5063808;28;20020;-74
2022/07/02 01:49:17;;;;;;;3.65;1.80;;;;;;;15.09;100.00;102102.97;5062537;28;20115;-74
2022/07/02 01:52:02;;;;;;;4.60;1.83;;;;;;;15.04;100.00;102103.00;5060683;28;20040;-74
2022/07/02 01:54:28;;;;;;;3.85;1.70;;;;;;;15.00;100.00;102101.88;5060614;28;20199;-74
2022/07/02 01:56:53;;;;;;;3.95;1.75;;;;;;;14.88;100.00;102110.50;5047031;28;20049;-74
2022/07/02 01:59:19;;;;;;;6.88;1.80;;;;;;;14.91;100.00;102109.94;5041709;28;20135;-74
2022/07/02 02:01:45;;;;;;;4.32;1.80;;;;;;;14.86;100.00;102107.19;5037974;28;20578;-74
2022/07/02 02:04:10;;;;;;;6.20;2.15;;;;;;;14.89;100.00;102099.16;5034560;28;20475;-74
2022/07/02 02:06:37;;;;;;;4.22;2.03;;;;;;;14.85;100.00;102091.72;5037710;28;20033;-74
2022/07/02 02:09:03;;;;;;;6.63;1.67;;;;;;;14.83;100.00;102097.53;5018308;28;20480;-74
2022/07/02 02:11:29;;;;;;;5.93;1.92;;;;;;;14.81;100.00;102094.22;5040319;28;20033;-74
2022/07/02 02:13:57;;;;;;;4.53;1.98;;;;;;;14.81;100.00;102096.97;5021321;28;20591;-74
2022/07/02 02:16:24;;;;;;;4.32;1.65;;;;;;;14.67;100.00;102082.09;5041921;28;20433;-74
2022/07/02 02:18:49;;;;;;;4.22;1.88;;;;;;;14.74;100.00;102088.19;5035985;28;20434;-74
2022/07/02 02:21:15;;;;;;;5.53;2.05;;;;;;;14.76;100.00;102085.09;5040219;28;20448;-73
2022/07/02 02:23:41;;;;;;;3.03;2.17;;;;;;;14.69;100.00;102083.50;5031956;28;20037;-73
2022/07/02 02:26:06;;;;;;;4.03;1.70;;;;;;;14.63;100.00;102094.81;5023885;28;20154;-73
2022/07/02 02:28:32;;;;;;;4.05;1.80;;;;;;;14.58;100.00;102083.75;5021353;28;20079;-74
2022/07/02 02:30:57;;;;;;;3.50;1.95;;;;;;;14.67;100.00;102077.41;5007531;28;20079;-74
2022/07/02 02:33:22;;;;;;;5.80;2.20;;;;;;;14.71;100.00;102074.94;5020695;28;20045;-74
2022/07/02 02:35:48;;;;;;;6.10;1.80;;;;;;;14.72;100.00;102073.00;5039617;28;20096;-73
2022/07/02 02:38:13;;;;;;;4.13;1.75;;;;;;;14.73;100.00;102077.41;5020406;28;20138;-73
2022/07/02 02:40:39;;;;;;;5.57;2.17;;;;;;;14.71;100.00;102077.69;5038225;28;20453;-73
2022/07/02 02:43:04;;;;;;;4.43;2.00;;;;;;;14.69;100.00;102079.88;5038263;28;20310;-73
2022/07/02 02:45:30;;;;;;;3.92;1.90;;;;;;;14.64;100.00;102077.13;5042071;28;20021;-72
2022/07/02 02:47:56;;;;;;;3.63;2.00;;;;;;;14.67;100.00;102085.69;5003114;28;20111;-73
2022/07/02 02:50:21;;;;;;;3.22;1.70;;;;;;;14.59;100.00;102085.41;5020777;28;20306;-74
2022/07/02 02:52:47;;;;;;;3.88;1.73;;;;;;;14.44;100.00;102076.03;5015318;28;20032;-73
2022/07/02 02:55:12;;;;;;;3.00;1.70;;;;;;;14.43;100.00;102076.31;5041101;28;20123;-73
2022/07/02 02:57:38;;;;;;;6.40;1.80;;;;;;;14.42;100.00;102074.69;5037033;28;20037;-73
2022/07/02 03:00:04;;;;;;;4.00;2.03;;;;;;;14.42;100.00;102080.19;5029565;28;20574;-73
2022/07/02 03:02:29;;;;;;;6.38;2.13;;;;;;;14.29;100.00;102068.59;5078948;28;20024;-73
2022/07/02 03:04:54;;;;;;;6.55;2.20;;;;;;;14.26;100.00;102066.41;5074671;28;20825;-73
2022/07/02 03:07:20;;;;;;;5.72;1.90;;;;;;;14.24;100.00;102063.09;5060562;28;20560;-73
2022/07/02 03:09:45;;;;;;;3.22;1.75;;;;;;;14.26;100.00;102060.06;5036948;28;20066;-73
2022/07/02 03:12:11;;;;;;;5.45;2.20;;;;;;;14.26;100.00;102058.13;5041242;28;20070;-73
2022/07/02 03:14:36;;;;;;;5.35;2.15;;;;;;;14.23;100.00;102049.59;5055607;28;20677;-73
2022/07/02 03:17:02;;;;;;;3.50;1.92;;;;;;;14.22;100.00;102051.53;5077563;28;20411;-73
